Time;durP1;ratioP1;P1;durP2;ratioP2;P2;SDS_P1;SDS_P2;PMS_P1;PMS_P2;Temp;Humidity;BMP_temperature;BMP_pressure;BME280_temperature;BME280_humidity;BME280_pressure;Samples;Min_cycle;Max_cycle;Signal;HPM_P1;HPM_P2
2022/08/05 00:02:24;;;;;;;6.88;6.18;;;29.40;54.90;;;;;;5113136;28;20074;-75
2022/08/05 00:04:50;;;;;;;7.63;6.57;;;29.30;55.50;;;;;;5113529;28;20030;-75
2022/08/05 00:07:15;;;;;;;6.65;5.90;;;29.30;55.20;;;;;;5113850;28;20585;-75
2022/08/05 00:09:41;;;;;;;7.53;6.70;;;29.20;55.00;;;;;;5113824;28;20035;-74
2022/08/05 00:12:07;;;;;;;8.48;6.70;;;29.20;55.20;;;;;;5112762;28;20020;-75
2022/08/05 00:14:33;;;;;;;13.80;7.20;;;29.10;55.50;;;;;;5113005;28;20397;-75
2022/08/05 00:16:59;;;;;;;8.95;6.70;;;28.90;56.00;;;;;;5113248;28;20049;-75
2022/08/05 00:19:25;;;;;;;8.05;6.93;;;28.80;56.20;;;;;;5112728;28;20463;-74
2022/08/05 00:21:51;;;;;;;10.65;6.82;;;28.70;56.60;;;;;;5113045;28;20038;-75
2022/08/05 00:24:17;;;;;;;8.32;6.68;;;28.70;56.40;;;;;;5113649;28;20020;-74
2022/08/05 00:26:42;;;;;;;9.60;7.22;;;28.70;56.30;;;;;;5113476;28;20500;-74
2022/08/05 00:29:08;;;;;;;8.57;7.25;;;28.70;56.40;;;;;;5094814;28;20032;-73
2022/08/05 00:31:34;;;;;;;8.18;7.22;;;28.70;56.50;;;;;;5112636;28;20019;-74
2022/08/05 00:33:59;;;;;;;8.38;7.30;;;28.50;56.40;;;;;;5112888;28;20498;-76
2022/08/05 00:36:25;;;;;;;8.55;7.00;;;28.40;56.70;;;;;;5112966;28;20045;-75
2022/08/05 00:38:51;;;;;;;8.57;7.65;;;28.40;56.90;;;;;;5112677;28;20030;-74
2022/08/05 00:41:28;;;;;;;8.45;7.30;;;28.30;57.00;;;;;;5112916;28;20047;-75
2022/08/05 00:43:54;;;;;;;8.05;7.20;;;28.30;56.90;;;;;;5112747;28;20023;-75
2022/08/05 00:46:20;;;;;;;9.07;7.53;;;28.30;57.20;;;;;;5112891;28;20011;-75
2022/08/05 00:48:45;;;;;;;8.10;7.10;;;28.30;57.20;;;;;;5113006;28;20047;-75
2022/08/05 00:51:11;;;;;;;8.38;7.05;;;28.30;57.20;;;;;;5112732;28;20026;-75
2022/08/05 00:53:37;;;;;;;8.95;7.32;;;28.30;57.10;;;;;;5113231;28;20028;-73
2022/08/05 00:56:04;;;;;;;8.00;7.20;;;28.20;57.20;;;;;;5115580;28;20468;-76
2022/08/05 00:58:30;;;;;;;8.10;7.30;;;28.20;57.20;;;;;;5117441;28;20557;-75
2022/08/05 01:00:55;;;;;;;8.77;7.70;;;28.20;57.10;;;;;;5117268;28;20049;-73
2022/08/05 01:03:21;;;;;;;8.48;7.57;;;28.20;57.40;;;;;;5115786;28;20436;-74
2022/08/05 01:05:47;;;;;;;13.15;8.13;;;28.10;57.50;;;;;;5117085;28;20031;-75
2022/08/05 01:08:13;;;;;;;8.95;8.05;;;28.00;57.80;;;;;;5098315;28;20035;-76
2022/08/05 01:10:50;;;;;;;9.45;8.02;;;28.00;57.80;;;;;;5116941;28;20407;-76
2022/08/05 01:13:44;;;;;;;8.90;7.80;;;27.90;57.90;;;;;;5116892;28;20023;-76
2022/08/05 01:16:19;;;;;;;9.18;8.05;;;27.90;58.00;;;;;;5117109;28;20023;-76
2022/08/05 01:18:49;;;;;;;9.43;8.02;;;27.60;58.40;;;;;;5116371;28;20386;-76
2022/08/05 01:21:58;;;;;;;11.05;7.00;;;27.60;58.40;;;;;;5116354;28;20408;-76
2022/08/05 01:24:50;;;;;;;9.18;7.40;;;27.50;58.50;;;;;;5116836;28;20114;-76
2022/08/05 01:27:19;;;;;;;9.10;7.45;;;27.50;58.80;;;;;;5116320;28;20084;-75
2022/08/05 01:29:49;;;;;;;8.52;7.65;;;27.50;58.60;;;;;;5098174;28;20493;-75
2022/08/05 01:32:20;;;;;;;9.00;8.10;;;27.60;58.50;;;;;;5116571;28;20383;-76
2022/08/05 01:34:55;;;;;;;9.85;7.53;;;27.60;58.50;;;;;;5116783;28;20024;-75
2022/08/05 01:37:31;;;;;;;7.00;6.30;;;27.70;58.30;;;;;;5116729;28;20024;-75
2022/08/05 01:39:59;;;;;;;7.97;7.18;;;27.80;58.20;;;;;;5115466;28;20029;-75
2022/08/05 01:42:28;;;;;;;9.60;7.93;;;27.80;58.40;;;;;;5116174;28;20023;-74
2022/08/05 01:44:57;;;;;;;8.40;7.60;;;27.80;58.00;;;;;;5115920;28;20058;-75
2022/08/05 01:47:23;;;;;;;9.82;8.02;;;27.80;58.00;;;;;;5115885;28;20156;-76
2022/08/05 01:49:52;;;;;;;8.15;7.35;;;27.80;58.00;;;;;;5116615;28;20457;-76
2022/08/05 01:52:19;;;;;;;8.63;7.72;;;27.80;57.90;;;;;;5115946;28;20016;-75
2022/08/05 01:54:50;;;;;;;9.90;8.90;;;27.90;57.90;;;;;;5116353;28;20084;-75
2022/08/05 01:57:24;;;;;;;10.60;8.50;;;27.80;57.90;;;;;;5116360;28;20102;-75
2022/08/05 01:59:53;;;;;;;9.27;8.02;;;27.70;58.10;;;;;;5115702;28;20279;-75
2022/08/05 02:02:21;;;;;;;8.93;7.82;;;27.80;57.90;;;;;;5115360;28;20015;-75
2022/08/05 02:04:47;;;;;;;10.68;8.38;;;27.80;57.90;;;;;;5115798;28;20022;-74
2022/08/05 02:07:13;;;;;;;9.25;7.50;;;27.70;58.00;;;;;;5097423;28;20036;-75
2022/08/05 02:09:39;;;;;;;9.65;7.50;;;27.70;58.00;;;;;;5115942;28;20034;-75
2022/08/05 02:12:20;;;;;;;8.10;7.30;;;27.80;57.80;;;;;;5115872;28;20473;-75
2022/08/05 02:14:55;;;;;;;8.45;7.55;;;27.90;57.40;;;;;;5115430;28;20028;-75
2022/08/05 02:17:50;;;;;;;8.77;7.57;;;27.70;57.70;;;;;;5115941;28;20378;-75
2022/08/05 02:20:21;;;;;;;8.40;7.50;;;27.70;57.70;;;;;;5113305;28;20055;-75
2022/08/05 02:22:55;;;;;;;10.10;7.35;;;27.60;57.80;;;;;;5115603;28;20024;-75
2022/08/05 02:25:25;;;;;;;9.25;7.60;;;27.50;57.70;;;;;;5115811;28;20506;-75
2022/08/05 02:27:52;;;;;;;7.93;7.13;;;27.60;57.90;;;;;;5115531;28;20043;-75
2022/08/05 02:30:19;;;;;;;9.13;8.10;;;27.50;58.00;;;;;;5115616;28;20020;-75
2022/08/05 02:32:51;;;;;;;9.00;8.10;;;27.50;57.90;;;;;;5115450;28;20020;-75
2022/08/05 02:35:20;;;;;;;11.48;8.18;;;27.40;58.10;;;;;;5115666;28;20030;-75
2022/08/05 02:37:46;;;;;;;9.50;8.13;;;27.10;58.10;;;;;;5115596;28;20032;-75
2022/08/05 02:40:15;;;;;;;8.80;7.80;;;27.10;58.50;;;;;;5115417;28;20019;-75
2022/08/05 02:42:42;;;;;;;7.95;7.13;;;27.10;58.60;;;;;;5115371;28;20413;-75
2022/08/05 02:45:09;;;;;;;8.93;7.53;;;27.20;58.60;;;;;;5114390;28;20024;-74
2022/08/05 02:47:36;;;;;;;10.57;8.32;;;27.30;58.80;;;;;;5114410;28;20048;-74
2022/08/05 02:50:04;;;;;;;9.00;8.05;;;27.30;58.30;;;;;;5114428;28;20031;-75
2022/08/05 02:52:31;;;;;;;8.68;7.78;;;27.40;58.00;;;;;;5114578;28;20019;-75
2022/08/05 02:54:59;;;;;;;8.88;7.97;;;27.40;58.00;;;;;;5115391;28;20038;-76
2022/08/05 02:57:25;;;;;;;11.13;8.32;;;27.40;58.20;;;;;;5114999;28;20012;-76
2022/08/05 02:59:50;;;;;;;9.45;8.55;;;27.30;58.20;;;;;;5114501;28;20043;-76
2022/08/05 03:02:24;;;;;;;8.43;7.53;;;27.20;58.30;;;;;;5115110;28;20031;-76
2022/08/05 03:04:53;;;;;;;9.35;8.13;;;27.20;58.30;;;;;;5114388;28;20080;-76
2022/08/05 03:07:19;;;;;;;9.95;7.60;;;27.10;58.40;;;;;;5113884;28;20027;-76
2022/08/05 03:09:45;;;;;;;10.02;7.57;;;27.00;58.30;;;;;;5114596;28;20482;-76
2022/08/05 03:12:38;;;;;;;8.90;7.53;;;26.90;58.50;;;;;;5114183;28;20032;-76
2022/08/05 03:15:06;;;;;;;8.48;7.60;;;26.90;58.70;;;;;;5114428;28;20462;-75
2022/08/05 03:17:33;;;;;;;9.55;7.30;;;27.00;58.50;;;;;;5113605;28;20107;-75
2022/08/05 03:19:58;;;;;;;8.85;7.95;;;27.00;58.40;;;;;;5114720;28;20016;-76
2022/08/05 03:22:25;;;;;;;9.70;7.88;;;27.00;58.30;;;;;;5114697;28;20023;-76
2022/08/05 03:24:51;;;;;;;11.95;7.13;;;26.90;58.50;;;;;;5113739;28;20084;-75
2022/08/05 03:27:19;;;;;;;14.30;8.02;;;27.00;58.60;;;;;;5113855;28;20019;-76
2022/08/05 03:29:45;;;;;;;9.18;8.05;;;27.00;58.40;;;;;;5113948;28;20023;-75
2022/08/05 03:32:11;;;;;;;8.93;7.80;;;26.90;58.70;;;;;;5114426;28;20476;-75
2022/08/05 03:34:38;;;;;;;9.93;7.93;;;27.00;58.80;;;;;;5114409;28;20051;-76
2022/08/05 03:37:05;;;;;;;9.82;7.95;;;27.00;58.90;;;;;;5114417;28;20023;-76
2022/08/05 03:39:31;;;;;;;9.35;8.07;;;27.00;59.10;;;;;;5114227;28;20076;-76
2022/08/05 03:41:57;;;;;;;10.35;7.57;;;26.90;59.10;;;;;;5113768;28;20016;-76
2022/08/05 03:44:24;;;;;;;8.75;7.88;;;27.00;59.10;;;;;;5113274;28;20038;-76
2022/08/05 03:46:49;;;;;;;10.52;7.93;;;27.00;59.20;;;;;;5113884;28;20020;-76
2022/08/05 03:49:15;;;;;;;8.32;7.43;;;27.00;59.10;;;;;;5113714;28;20032;-76
2022/08/05 03:52:03;;;;;;;8.65;6.88;;;27.00;59.00;;;;;;5095701;28;20020;-76
2022/08/05 03:54:28;;;;;;;8.88;7.97;;;27.00;59.00;;;;;;5113178;28;20039;-76
2022/08/05 03:56:55;;;;;;;8.70;7.68;;;27.10;58.60;;;;;;5113997;28;20030;-76
2022/08/05 03:59:42;;;;;;;9.30;6.93;;;27.10;58.80;;;;;;5112685;28;20027;-76
2022/08/05 04:02:10;;;;;;;6.93;6.22;;;27.10;58.30;;;;;;5114062;28;20046;-76
2022/08/05 04:04:36;;;;;;;7.90;6.20;;;27.10;57.80;;;;;;5113701;28;20023;-76
2022/08/05 04:07:04;;;;;;;8.85;5.90;;;27.10;57.30;;;;;;5113730;28;20030;-75
2022/08/05 04:09:31;;;;;;;7.30;5.88;;;27.20;57.20;;;;;;5113480;28;20031;-77
2022/08/05 04:11:57;;;;;;;6.80;6.10;;;27.20;57.20;;;;;;5113429;28;20023;-75
2022/08/05 04:14:26;;;;;;;9.50;6.53;;;27.30;57.30;;;;;;5112347;28;20081;-74
2022/08/05 04:16:53;;;;;;;9.67;6.10;;;27.40;57.10;;;;;;5113589;28;20373;-76
2022/08/05 04:19:19;;;;;;;8.48;6.15;;;27.40;56.90;;;;;;5113750;28;20027;-75
2022/08/05 04:21:45;;;;;;;9.07;6.05;;;27.50;56.90;;;;;;5112897;28;20428;-75
2022/08/05 04:24:11;;;;;;;6.47;5.88;;;27.60;56.90;;;;;;5095514;28;20076;-76
2022/08/05 04:26:37;;;;;;;8.30;6.15;;;27.70;56.90;;;;;;5113421;28;20102;-75
2022/08/05 04:29:02;;;;;;;11.02;6.20;;;27.70;56.70;;;;;;5113305;28;20046;-75
2022/08/05 04:31:28;;;;;;;6.53;5.70;;;27.90;56.90;;;;;;5112325;28;20027;-76
2022/08/05 04:33:54;;;;;;;9.13;5.95;;;27.80;56.60;;;;;;5112740;28;20024;-75
2022/08/05 04:36:19;;;;;;;6.25;5.47;;;27.80;57.00;;;;;;5113131;28;20493;-75
2022/08/05 04:38:45;;;;;;;10.13;5.97;;;27.90;57.30;;;;;;5113254;28;20036;-76
2022/08/05 04:41:11;;;;;;;6.88;5.85;;;27.50;57.60;;;;;;5113856;28;20491;-75
2022/08/05 04:43:37;;;;;;;7.50;5.82;;;27.00;59.00;;;;;;5113622;28;20378;-74
2022/08/05 04:46:03;;;;;;;7.10;5.25;;;27.00;59.70;;;;;;5113131;28;20024;-76
2022/08/05 04:48:29;;;;;;;7.30;5.35;;;27.10;59.00;;;;;;5112532;28;20048;-75
2022/08/05 04:50:56;;;;;;;6.85;5.55;;;27.50;58.50;;;;;;5112630;28;20024;-75
2022/08/05 04:53:22;;;;;;;6.72;5.82;;;27.60;58.40;;;;;;5112356;28;20034;-75
2022/08/05 04:55:48;;;;;;;8.40;6.25;;;27.80;58.20;;;;;;5112801;28;20023;-75
2022/08/05 04:58:16;;;;;;;7.43;5.70;;;28.10;57.80;;;;;;5112888;28;20028;-75
2022/08/05 05:00:43;;;;;;;6.57;5.22;;;28.30;57.30;;;;;;5113108;28;20501;-75
2022/08/05 05:03:09;;;;;;;7.97;5.82;;;28.40;56.90;;;;;;5112783;28;20027;-76
2022/08/05 05:05:36;;;;;;;9.20;5.68;;;28.20;57.20;;;;;;5112285;28;20466;-76
2022/08/05 05:08:04;;;;;;;10.10;5.53;;;28.10;57.90;;;;;;5112710;28;20066;-75
2022/08/05 05:10:40;;;;;;;9.32;5.72;;;27.90;57.70;;;;;;5113222;28;20012;-75
2022/08/05 05:13:13;;;;;;;8.77;5.55;;;27.60;58.20;;;;;;5113346;28;20027;-75
2022/08/05 05:15:40;;;;;;;9.88;5.97;;;27.60;58.50;;;;;;5113331;28;20404;-76
2022/08/05 05:18:07;;;;;;;8.13;5.28;;;27.80;58.50;;;;;;5112746;28;20047;-76
2022/08/05 05:20:33;;;;;;;8.60;5.03;;;28.10;57.20;;;;;;5094076;28;20024;-76
2022/08/05 05:23:03;;;;;;;8.07;5.10;;;28.10;56.90;;;;;;5113013;28;20031;-75
2022/08/05 05:25:29;;;;;;;5.82;5.00;;;27.90;56.50;;;;;;5094596;28;20027;-76
2022/08/05 05:27:55;;;;;;;7.72;5.07;;;28.10;57.10;;;;;;5112979;28;20035;-77
2022/08/05 05:30:21;;;;;;;6.75;4.60;;;28.60;56.50;;;;;;5112854;28;20020;-76
2022/08/05 05:32:47;;;;;;;7.47;5.53;;;29.00;56.10;;;;;;5112882;28;20020;-75
2022/08/05 05:35:12;;;;;;;8.13;5.10;;;29.30;55.50;;;;;;5112759;28;20374;-76
2022/08/05 05:37:49;;;;;;;7.50;4.70;;;29.50;54.90;;;;;;5112674;28;20036;-75
2022/08/05 05:40:17;;;;;;;7.20;4.97;;;29.20;54.80;;;;;;5094979;28;20019;-75
2022/08/05 05:42:42;;;;;;;5.80;4.70;;;29.10;55.00;;;;;;5116245;28;20110;-76
2022/08/05 05:45:08;;;;;;;12.93;4.50;;;29.40;54.50;;;;;;5116543;28;20022;-75
2022/08/05 05:47:35;;;;;;;8.38;4.70;;;29.20;54.00;;;;;;5116407;28;20116;-76
2022/08/05 05:50:00;;;;;;;6.38;4.30;;;28.90;54.10;;;;;;5116320;28;20067;-76
2022/08/05 05:52:26;;;;;;;8.02;4.60;;;28.60;54.50;;;;;;5116127;28;20054;-78
2022/08/05 05:54:52;;;;;;;6.28;4.70;;;28.60;54.80;;;;;;5115419;28;20055;-75
2022/08/05 05:57:18;;;;;;;9.23;4.30;;;29.00;54.30;;;;;;5115981;28;20023;-77
2022/08/05 05:59:45;;;;;;;9.00;4.82;;;29.40;54.00;;;;;;5115486;28;20077;-76
2022/08/05 06:02:10;;;;;;;5.45;4.30;;;29.80;53.60;;;;;;5116192;28;20032;-75
2022/08/05 06:04:36;;;;;;;5.22;4.20;;;30.20;53.50;;;;;;5116250;28;20023;-74
2022/08/05 06:07:01;;;;;;;8.48;4.43;;;30.30;53.20;;;;;;5116231;28;20062;-78
2022/08/05 06:09:27;;;;;;;5.80;4.28;;;30.50;52.00;;;;;;5115996;28;20428;-75
2022/08/05 06:11:54;;;;;;;9.32;4.35;;;30.80;51.30;;;;;;5116139;28;20020;-76
2022/08/05 06:14:19;;;;;;;5.68;4.05;;;31.00;51.30;;;;;;5115946;28;20393;-75
2022/08/05 06:16:45;;;;;;;5.75;3.88;;;30.90;51.10;;;;;;5116104;28;20500;-75
2022/08/05 06:19:11;;;;;;;6.20;4.07;;;30.40;51.50;;;;;;5115818;28;20077;-75
2022/08/05 06:21:36;;;;;;;5.25;3.90;;;30.10;51.60;;;;;;5115861;28;20438;-75
2022/08/05 06:24:03;;;;;;;7.78;4.07;;;29.90;51.80;;;;;;5115926;28;20436;-76
2022/08/05 06:26:28;;;;;;;7.00;3.72;;;29.70;52.20;;;;;;5115942;28;20034;-77
2022/08/05 06:28:54;;;;;;;6.93;4.00;;;30.00;52.20;;;;;;5116102;28;20032;-77
2022/08/05 06:31:20;;;;;;;6.43;4.20;;;30.30;51.60;;;;;;5115791;28;20028;-77
2022/08/05 06:33:45;;;;;;;7.38;4.15;;;29.60;52.90;;;;;;5115174;28;20458;-76
2022/08/05 06:36:11;;;;;;;6.22;3.95;;;29.70;53.60;;;;;;5115312;28;20121;-75
2022/08/05 06:38:37;;;;;;;4.07;3.60;;;30.10;52.60;;;;;;5114473;28;20152;-76
2022/08/05 06:41:04;;;;;;;4.07;3.35;;;30.70;51.90;;;;;;5114480;28;20031;-76
2022/08/05 06:43:30;;;;;;;5.07;3.60;;;30.90;49.40;;;;;;5114184;28;20031;-77
2022/08/05 06:45:55;;;;;;;4.85;3.28;;;30.90;49.80;;;;;;5114001;28;20140;-76
2022/08/05 06:48:21;;;;;;;6.47;3.70;;;31.00;49.70;;;;;;5113909;28;20126;-77
2022/08/05 06:50:47;;;;;;;5.45;3.58;;;31.00;50.20;;;;;;5112831;28;20059;-76
2022/08/05 06:53:13;;;;;;;6.00;3.60;;;30.90;49.70;;;;;;5114037;28;20489;-75
2022/08/05 06:55:40;;;;;;;5.28;3.40;;;31.00;50.20;;;;;;5095372;28;20032;-77
2022/08/05 06:58:06;;;;;;;4.15;3.30;;;31.30;49.80;;;;;;5113448;28;20470;-75
2022/08/05 07:00:32;;;;;;;5.00;3.42;;;31.40;49.60;;;;;;5113758;28;20064;-75
2022/08/05 07:02:58;;;;;;;4.97;3.40;;;31.30;50.00;;;;;;5095324;28;20636;-78
2022/08/05 07:05:24;;;;;;;7.45;3.33;;;31.20;49.60;;;;;;5113405;28;20028;-76
2022/08/05 07:07:50;;;;;;;4.40;3.42;;;31.30;49.70;;;;;;5096287;28;20032;-76
2022/08/05 07:10:16;;;;;;;5.97;3.33;;;31.20;49.50;;;;;;5114727;28;20100;-78
2022/08/05 07:18:10;;;;;;;4.93;3.65;;;31.60;49.30;;;;;;5111933;28;20045;-76
2022/08/05 07:20:36;;;;;;;4.22;3.17;;;31.40;49.40;;;;;;5110736;28;20469;-77
2022/08/05 07:23:01;;;;;;;5.38;3.50;;;31.30;49.30;;;;;;5111075;28;20015;-76
2022/08/05 07:25:27;;;;;;;5.75;3.10;;;31.40;49.80;;;;;;5111309;28;20063;-77
2022/08/05 07:27:54;;;;;;;10.52;3.20;;;31.50;48.00;;;;;;5111282;28;20058;-76
2022/08/05 07:30:20;;;;;;;6.38;3.30;;;31.70;48.60;;;;;;5111334;28;20077;-78
2022/08/05 07:32:46;;;;;;;5.38;3.00;;;32.00;48.50;;;;;;5111031;28;20016;-76
2022/08/05 07:35:13;;;;;;;8.27;3.50;;;32.00;48.30;;;;;;5111083;28;20035;-75
2022/08/05 07:37:39;;;;;;;7.15;3.25;;;32.20;48.00;;;;;;5092584;28;20048;-75
2022/08/05 07:40:06;;;;;;;5.47;3.20;;;32.40;47.90;;;;;;5110669;28;20027;-77
2022/08/05 07:42:33;;;;;;;5.57;3.05;;;32.40;47.30;;;;;;5111327;28;20020;-76
2022/08/05 07:44:58;;;;;;;6.32;2.90;;;32.50;46.70;;;;;;5110416;28;20035;-79
2022/08/05 07:47:24;;;;;;;6.75;3.40;;;32.50;46.40;;;;;;5092508;28;20071;-77
2022/08/05 07:49:51;;;;;;;5.38;2.95;;;32.50;46.50;;;;;;5110226;28;20063;-77
2022/08/05 07:52:21;;;;;;;7.50;3.20;;;32.60;46.90;;;;;;5110251;28;20023;-77
2022/08/05 07:54:47;;;;;;;11.23;3.50;;;32.80;47.30;;;;;;5110667;28;20449;-77
2022/08/05 07:57:13;;;;;;;10.23;3.10;;;33.00;48.60;;;;;;5110860;28;20024;-81
2022/08/05 07:59:39;;;;;;;5.53;3.17;;;33.60;47.50;;;;;;5110417;28;20080;-77
2022/08/05 08:02:06;;;;;;;5.63;3.00;;;33.80;45.70;;;;;;5108499;28;20100;-77
2022/08/05 08:04:32;;;;;;;10.05;3.20;;;33.60;45.60;;;;;;5108686;28;20489;-75
2022/08/05 08:06:59;;;;;;;6.28;3.10;;;33.90;45.70;;;;;;5108724;28;20020;-78
2022/08/05 08:09:26;;;;;;;5.57;3.30;;;33.80;46.00;;;;;;5110097;28;20424;-80
2022/08/05 08:11:51;;;;;;;8.27;3.15;;;33.80;45.90;;;;;;5113767;28;20027;-79
2022/08/05 08:14:17;;;;;;;8.02;2.97;;;33.60;46.00;;;;;;5113133;28;20031;-78
2022/08/05 08:16:43;;;;;;;8.15;3.20;;;34.00;46.40;;;;;;5112743;28;20141;-76
2022/08/05 08:19:08;;;;;;;6.60;3.35;;;34.40;45.60;;;;;;5113849;28;20031;-79
2022/08/05 08:21:34;;;;;;;7.38;3.03;;;34.40;44.40;;;;;;5096271;28;20076;-89
2022/08/05 08:24:00;;;;;;;7.72;3.10;;;34.30;44.70;;;;;;5114356;28;20024;-80
2022/08/05 08:26:26;;;;;;;7.30;2.90;;;33.80;44.90;;;;;;5113952;28;20038;-78
2022/08/05 08:28:51;;;;;;;5.72;2.72;;;34.20;45.40;;;;;;5113260;28;20027;-80
2022/08/05 08:31:17;;;;;;;8.35;2.97;;;34.70;46.60;;;;;;5093198;28;20019;-79
2022/08/05 08:33:43;;;;;;;4.45;2.70;;;34.80;44.50;;;;;;5112207;28;20106;-78
2022/08/05 08:36:09;;;;;;;4.88;2.90;;;35.00;45.90;;;;;;5112615;28;20038;-80
2022/08/05 08:38:35;;;;;;;4.38;2.90;;;35.40;46.00;;;;;;5113096;28;20023;-77
2022/08/05 08:41:07;;;;;;;11.18;3.00;;;35.60;44.30;;;;;;5113029;28;20086;-78
2022/08/05 08:43:34;;;;;;;4.72;3.40;;;35.70;45.30;;;;;;5113567;28;20023;-78
2022/08/05 08:46:02;;;;;;;7.75;3.15;;;35.20;44.00;;;;;;5095404;28;20066;-79
2022/08/05 08:48:30;;;;;;;7.03;3.00;;;35.20;45.10;;;;;;5113579;28;20044;-81
2022/08/05 08:50:57;;;;;;;4.85;2.90;;;35.60;44.90;;;;;;5113607;28;20424;-79
2022/08/05 08:53:26;;;;;;;5.88;3.17;;;35.40;44.30;;;;;;5113528;28;20020;-77
2022/08/05 08:55:51;;;;;;;4.95;3.00;;;35.10;44.10;;;;;;5113567;28;20032;-78
2022/08/05 08:58:17;;;;;;;6.45;2.90;;;35.10;44.50;;;;;;5113308;28;20064;-82
2022/08/05 09:00:45;;;;;;;5.05;2.95;;;35.20;45.20;;;;;;5112018;28;20028;-80
2022/08/05 09:03:11;;;;;;;5.57;3.03;;;35.70;45.10;;;;;;4741078;28;10000366;-77
2022/08/05 09:05:36;;;;;;;4.60;3.10;;;36.10;44.90;;;;;;5107616;28;20057;-77
2022/08/05 09:08:02;;;;;;;6.30;3.00;;;36.50;44.30;;;;;;5108458;28;20055;-77
2022/08/05 09:10:28;;;;;;;4.15;3.20;;;36.40;44.40;;;;;;5109738;28;20031;-81
2022/08/05 09:12:55;;;;;;;10.73;3.20;;;36.70;43.80;;;;;;5109322;28;20023;-75
2022/08/05 09:15:22;;;;;;;4.25;3.17;;;36.70;44.20;;;;;;5108364;28;20031;-79
2022/08/05 09:17:49;;;;;;;4.93;3.03;;;37.00;44.30;;;;;;5113109;28;20645;-79
2022/08/05 09:20:15;;;;;;;5.10;3.40;;;37.00;43.20;;;;;;5095657;28;20020;-77
2022/08/05 09:23:13;;;;;;;5.90;3.13;;;36.90;43.00;;;;;;5114516;28;20024;-81
2022/08/05 09:25:46;;;;;;;7.22;3.38;;;37.00;43.10;;;;;;5112593;28;20114;-78
2022/08/05 09:28:18;;;;;;;8.93;3.10;;;37.20;44.00;;;;;;5112408;28;20039;-78
2022/08/05 09:30:56;;;;;;;7.03;3.20;;;36.80;43.10;;;;;;5113620;28;20035;-75
2022/08/05 09:33:24;;;;;;;5.93;3.10;;;36.40;42.60;;;;;;5113975;28;20031;-77
2022/08/05 09:36:08;;;;;;;4.72;2.95;;;36.00;43.00;;;;;;5114203;28;20016;-76
2022/08/05 09:38:33;;;;;;;8.65;3.95;;;36.40;43.50;;;;;;5112467;28;20432;-80
2022/08/05 09:41:04;;;;;;;8.45;2.95;;;36.50;43.20;;;;;;5113658;28;20526;-78
2022/08/05 09:43:30;;;;;;;6.75;3.22;;;36.60;43.20;;;;;;5113849;28;20360;-77
2022/08/05 09:45:55;;;;;;;6.53;3.20;;;36.80;43.10;;;;;;5115014;28;20493;-80
2022/08/05 09:48:28;;;;;;;4.45;3.30;;;36.10;42.40;;;;;;5112814;28;20050;-79
2022/08/05 09:51:00;;;;;;;4.90;3.25;;;36.00;43.10;;;;;;5112456;28;20400;-77
2022/08/05 09:53:26;;;;;;;5.07;3.00;;;36.60;43.60;;;;;;5111498;28;20030;-74
2022/08/05 09:56:01;;;;;;;8.88;4.07;;;37.20;43.20;;;;;;5111949;28;20024;-77
2022/08/05 09:58:27;;;;;;;4.53;3.10;;;36.60;42.40;;;;;;5112213;28;20051;-79
2022/08/05 10:00:56;;;;;;;6.88;3.42;;;37.00;43.40;;;;;;5113406;28;20062;-77
2022/08/05 10:03:22;;;;;;;8.05;3.40;;;37.60;42.80;;;;;;5114531;27;20558;-77
2022/08/05 10:06:05;;;;;;;7.22;3.55;;;37.30;42.30;;;;;;5118069;27;20080;-75
2022/08/05 10:08:31;;;;;;;13.73;3.67;;;37.50;43.20;;;;;;5108598;28;20443;-77
2022/08/05 10:10:57;;;;;;;7.05;3.10;;;37.60;42.80;;;;;;5112049;28;20074;-78
2022/08/05 10:13:50;;;;;;;4.30;3.10;;;37.30;41.70;;;;;;5112028;28;20098;-78
2022/08/05 10:16:34;;;;;;;6.55;3.10;;;37.70;43.20;;;;;;5105744;28;20119;-89
2022/08/05 10:19:01;;;;;;;8.32;3.28;;;38.00;41.90;;;;;;5108655;28;20016;-77
2022/08/05 10:21:27;;;;;;;6.78;3.20;;;38.00;41.70;;;;;;5111949;28;20378;-77
2022/08/05 10:23:54;;;;;;;5.80;2.90;;;38.00;42.60;;;;;;5111698;28;20024;-79
2022/08/05 10:26:20;;;;;;;4.50;3.00;;;38.30;41.70;;;;;;5111413;28;20577;-77
2022/08/05 10:28:46;;;;;;;5.97;3.35;;;38.50;41.00;;;;;;5112698;28;20031;-82
2022/08/05 10:31:15;;;;;;;7.20;3.33;;;38.30;41.20;;;;;;5113272;28;20029;-79
2022/08/05 10:33:41;;;;;;;5.25;3.13;;;38.80;41.60;;;;;;5113203;28;20035;-78
2022/08/05 10:36:07;;;;;;;6.03;3.17;;;38.70;41.70;;;;;;5112576;28;20023;-79
2022/08/05 10:38:35;;;;;;;4.47;3.00;;;38.40;42.20;;;;;;5113491;28;20027;-78
2022/08/05 10:41:16;;;;;;;4.35;3.13;;;38.30;42.50;;;;;;5112321;28;20028;-83
2022/08/05 10:44:15;;;;;;;6.63;3.17;;;38.60;40.70;;;;;;5112639;28;20512;-85
2022/08/05 10:46:44;;;;;;;5.68;3.08;;;38.50;40.80;;;;;;5112806;28;20028;-79
2022/08/05 10:49:10;;;;;;;6.93;3.42;;;38.60;41.90;;;;;;5110934;28;20090;-78
2022/08/05 10:51:48;;;;;;;4.85;2.90;;;39.00;41.30;;;;;;5111488;28;20043;-78
2022/08/05 10:54:14;;;;;;;5.15;3.10;;;39.60;40.70;;;;;;5108637;28;20080;-80
2022/08/05 10:56:49;;;;;;;4.65;3.08;;;39.40;42.00;;;;;;5112053;28;20027;-77
2022/08/05 10:59:28;;;;;;;4.93;3.10;;;39.80;40.70;;;;;;5109195;28;20020;-77
2022/08/05 11:02:25;;;;;;;5.22;2.95;;;39.70;41.70;;;;;;5113098;28;20553;-78
2022/08/05 11:04:54;;;;;;;6.15;2.90;;;40.00;40.30;;;;;;5010452;28;20030;-80
2022/08/05 11:07:20;;;;;;;5.40;3.20;;;40.00;40.70;;;;;;5011914;28;20528;-78
2022/08/05 11:09:53;;;;;;;5.05;2.97;;;39.70;40.00;;;;;;5011621;28;20069;-79
2022/08/05 11:12:33;;;;;;;5.22;3.35;;;39.20;39.70;;;;;;5011928;28;20013;-78
2022/08/05 11:15:15;;;;;;;5.10;3.15;;;38.70;39.50;;;;;;4663668;28;10000397;-79
2022/08/05 11:17:43;;;;;;;5.43;3.20;;;38.50;40.30;;;;;;5001088;28;20045;-74
2022/08/05 11:20:36;;;;;;;18.13;3.38;;;38.90;40.80;;;;;;5008170;28;20037;-78
2022/08/05 11:23:33;;;;;;;5.28;3.20;;;39.40;41.10;;;;;;5006765;28;20018;-78
2022/08/05 11:26:06;;;;;;;5.75;3.53;;;39.70;40.30;;;;;;5006700;28;20038;-77
2022/08/05 11:28:32;;;;;;;6.40;3.13;;;39.40;39.60;;;;;;4991809;28;20046;-77
2022/08/05 11:30:58;;;;;;;4.63;2.97;;;38.90;39.20;;;;;;5010321;28;20065;-78
2022/08/05 11:33:37;;;;;;;4.47;3.20;;;39.00;42.10;;;;;;5011564;28;20033;-78
2022/08/05 11:36:05;;;;;;;5.38;3.30;;;39.30;40.60;;;;;;5012164;28;20030;-80
2022/08/05 11:38:56;;;;;;;6.93;3.38;;;39.50;40.30;;;;;;5012322;28;20444;-86
2022/08/05 11:41:23;;;;;;;7.35;3.50;;;39.30;40.30;;;;;;5084710;28;20032;-81
2022/08/05 11:44:14;;;;;;;4.68;3.55;;;39.30;40.80;;;;;;5094446;28;20073;-77
2022/08/05 11:46:41;;;;;;;4.85;3.20;;;39.60;40.30;;;;;;5094703;28;20023;-81
2022/08/05 11:49:12;;;;;;;5.47;2.97;;;39.90;39.80;;;;;;5074668;28;20060;-78
2022/08/05 11:51:42;;;;;;;5.15;3.13;;;39.90;40.10;;;;;;5093462;28;20027;-79
2022/08/05 11:54:09;;;;;;;4.13;3.00;;;40.10;39.60;;;;;;5093096;28;20112;-80
2022/08/05 11:56:49;;;;;;;4.57;3.13;;;40.00;40.10;;;;;;5093733;28;20056;-77
2022/08/05 11:59:20;;;;;;;4.82;2.83;;;39.80;39.40;;;;;;5093647;28;20024;-81
2022/08/05 12:01:56;;;;;;;4.43;3.05;;;39.50;40.10;;;;;;5075619;28;20494;-81
2022/08/05 12:04:22;;;;;;;4.53;3.17;;;39.50;40.80;;;;;;5076380;28;20040;-78
2022/08/05 12:06:49;;;;;;;4.28;3.17;;;39.70;39.30;;;;;;5093222;28;20020;-79
2022/08/05 12:09:19;;;;;;;6.13;3.20;;;40.00;39.70;;;;;;5094235;28;20055;-89
2022/08/05 12:11:46;;;;;;;4.80;3.13;;;40.00;39.90;;;;;;5093697;28;20109;-85
2022/08/05 12:14:12;;;;;;;5.60;3.15;;;39.90;39.40;;;;;;5093856;28;20500;-82
2022/08/05 12:16:41;;;;;;;5.82;3.22;;;39.70;39.90;;;;;;5075731;28;20036;-86
2022/08/05 12:19:10;;;;;;;5.18;3.17;;;39.60;39.30;;;;;;5094253;28;20027;-79
2022/08/05 12:21:44;;;;;;;7.22;3.00;;;39.70;39.60;;;;;;5093969;28;20099;-81
2022/08/05 12:24:13;;;;;;;5.97;3.28;;;39.50;39.50;;;;;;5093749;28;20028;-78
2022/08/05 12:26:41;;;;;;;6.90;3.13;;;39.80;40.10;;;;;;5094038;28;20028;-77
2022/08/05 12:29:11;;;;;;;8.80;3.65;;;39.80;39.20;;;;;;5093879;28;20318;-79
2022/08/05 12:31:37;;;;;;;9.23;3.20;;;39.10;39.40;;;;;;5075768;28;20016;-78
2022/08/05 12:34:06;;;;;;;5.60;2.80;;;39.20;39.90;;;;;;5093325;28;20391;-81
2022/08/05 12:36:33;;;;;;;5.55;3.25;;;39.70;39.60;;;;;;5093474;28;20034;-78
2022/08/05 12:38:59;;;;;;;5.07;3.30;;;40.00;39.70;;;;;;5093714;28;20020;-81
2022/08/05 12:41:36;;;;;;;5.70;3.35;;;39.90;39.30;;;;;;5092595;28;20021;-81
2022/08/05 12:44:10;;;;;;;5.10;3.25;;;39.70;38.80;;;;;;5093648;28;20051;-82
2022/08/05 12:46:38;;;;;;;5.22;3.40;;;39.80;39.70;;;;;;5093601;28;20020;-75
2022/08/05 12:49:14;;;;;;;7.18;3.30;;;39.90;39.40;;;;;;5074861;28;20048;-88
2022/08/05 12:51:56;;;;;;;6.90;3.30;;;39.80;39.30;;;;;;5100259;28;20055;-80
2022/08/05 12:54:24;;;;;;;6.97;3.40;;;39.60;39.50;;;;;;5081745;28;20119;-81
2022/08/05 12:56:56;;;;;;;6.57;3.50;;;39.50;40.40;;;;;;5082454;28;20055;-74
2022/08/05 12:59:24;;;;;;;6.68;3.20;;;39.40;39.90;;;;;;5100310;28;20482;-75
2022/08/05 13:01:57;;;;;;;4.85;3.28;;;39.60;40.10;;;;;;5100400;28;20016;-85